sensor_id;sensor_type;location;lat;lon;timestamp;pressure;altitude;pressure_sealevel;temperature;humidity
47883;BME280;37739;50.350;7.578;2022-07-11T00:02:23;100448.59;;;18.67;62.11
47883;BME280;37739;50.350;7.578;2022-07-11T00:04:48;100447.72;;;18.65;62.22
47883;BME280;37739;50.350;7.578;2022-07-11T00:07:15;100448.56;;;18.64;62.55
47883;BME280;37739;50.350;7.578;2022-07-11T00:09:40;100444.28;;;18.68;62.46
47883;BME280;37739;50.350;7.578;2022-07-11T00:12:09;100446.91;;;18.69;62.08
47883;BME280;37739;50.350;7.578;2022-07-11T00:14:35;100438.22;;;18.67;62.15
47883;BME280;37739;50.350;7.578;2022-07-11T00:17:01;100442.50;;;18.67;62.37
47883;BME280;37739;50.350;7.578;2022-07-11T00:19:26;100448.59;;;18.67;62.11
47883;BME280;37739;50.350;7.578;2022-07-11T00:21:52;100442.47;;;18.63;62.52
47883;BME280;37739;50.350;7.578;2022-07-11T00:24:18;100439.03;;;18.63;62.46
47883;BME280;37739;50.350;7.578;2022-07-11T00:26:46;100439.03;;;18.63;62.52
47883;BME280;37739;50.350;7.578;2022-07-11T00:29:14;100432.97;;;18.64;62.30
47883;BME280;37739;50.350;7.578;2022-07-11T00:31:43;100435.56;;;18.64;62.34
47883;BME280;37739;50.350;7.578;2022-07-11T00:34:08;100434.72;;;18.67;62.45
47883;BME280;37739;50.350;7.578;2022-07-11T00:36:38;100434.72;;;18.65;62.55
47883;BME280;37739;50.350;7.578;2022-07-11T00:39:04;100430.34;;;18.64;62.22
47883;BME280;37739;50.350;7.578;2022-07-11T00:41:32;100431.13;;;18.57;62.77
47883;BME280;37739;50.350;7.578;2022-07-11T00:44:01;100423.31;;;18.55;62.68
47883;BME280;37739;50.350;7.578;2022-07-11T00:46:27;100425.03;;;18.55;62.68
47883;BME280;37739;50.350;7.578;2022-07-11T00:48:57;100420.66;;;18.52;63.05
47883;BME280;37739;50.350;7.578;2022-07-11T00:51:25;100419.81;;;18.55;62.91
47883;BME280;37739;50.350;7.578;2022-07-11T00:53:54;100425.91;;;18.55;63.03
47883;BME280;37739;50.350;7.578;2022-07-11T00:56:24;100420.69;;;18.54;63.15
47883;BME280;37739;50.350;7.578;2022-07-11T00:58:50;100424.16;;;18.54;62.88
47883;BME280;37739;50.350;7.578;2022-07-11T01:01:17;100422.44;;;18.55;62.96
47883;BME280;37739;50.350;7.578;2022-07-11T01:03:43;100425.88;;;18.52;63.00
47883;BME280;37739;50.350;7.578;2022-07-11T01:06:11;100421.47;;;18.48;63.17
47883;BME280;37739;50.350;7.578;2022-07-11T01:08:38;100423.22;;;18.51;62.99
47883;BME280;37739;50.350;7.578;2022-07-11T01:11:05;100420.63;;;18.51;62.69
47883;BME280;37739;50.350;7.578;2022-07-11T01:13:34;100419.78;;;18.50;63.25
47883;BME280;37739;50.350;7.578;2022-07-11T01:18:43;100410.16;;;18.44;63.48
47883;BME280;37739;50.350;7.578;2022-07-11T01:23:47;100406.69;;;18.45;62.89
47883;BME280;37739;50.350;7.578;2022-07-11T01:26:14;100402.41;;;18.46;63.02
47883;BME280;37739;50.350;7.578;2022-07-11T01:28:40;100400.59;;;18.42;63.33
47883;BME280;37739;50.350;7.578;2022-07-11T01:31:07;100402.28;;;18.38;63.15
47883;BME280;37739;50.350;7.578;2022-07-11T01:33:33;100407.50;;;18.41;63.07
47883;BME280;37739;50.350;7.578;2022-07-11T01:36:01;100401.50;;;18.44;63.21
47883;BME280;37739;50.350;7.578;2022-07-11T01:38:29;100403.22;;;18.42;63.13
47883;BME280;37739;50.350;7.578;2022-07-11T01:40:54;100397.78;;;18.28;63.54
47883;BME280;37739;50.350;7.578;2022-07-11T01:43:19;100399.50;;;18.24;63.47
47883;BME280;37739;50.350;7.578;2022-07-11T01:45:47;100398.69;;;18.30;63.41
47883;BME280;37739;50.350;7.578;2022-07-11T01:48:14;100396.88;;;18.26;63.74
47883;BME280;37739;50.350;7.578;2022-07-11T01:50:40;100391.72;;;18.28;63.40
47883;BME280;37739;50.350;7.578;2022-07-11T01:53:05;100382.25;;;18.31;63.45
47883;BME280;37739;50.350;7.578;2022-07-11T01:55:35;100386.66;;;18.35;63.17
47883;BME280;37739;50.350;7.578;2022-07-11T01:58:03;100388.44;;;18.39;62.98
47883;BME280;37739;50.350;7.578;2022-07-11T02:00:28;100385.78;;;18.35;63.27
47883;BME280;37739;50.350;7.578;2022-07-11T02:02:56;100390.97;;;18.35;63.05
47883;BME280;37739;50.350;7.578;2022-07-11T02:05:24;100390.09;;;18.36;62.99
47883;BME280;37739;50.350;7.578;2022-07-11T02:07:52;100387.47;;;18.33;63.13
47883;BME280;37739;50.350;7.578;2022-07-11T02:10:35;100389.22;;;18.32;63.13
47883;BME280;37739;50.350;7.578;2022-07-11T02:13:01;100381.41;;;18.31;63.04
47883;BME280;37739;50.350;7.578;2022-07-11T02:15:28;100378.78;;;18.31;63.63
47883;BME280;37739;50.350;7.578;2022-07-11T02:17:54;100381.44;;;18.32;63.00
47883;BME280;37739;50.350;7.578;2022-07-11T02:20:20;100380.56;;;18.33;63.22
47883;BME280;37739;50.350;7.578;2022-07-11T02:22:48;100371.94;;;18.34;63.04
47883;BME280;37739;50.350;7.578;2022-07-11T02:25:17;100371.03;;;18.32;63.22
47883;BME280;37739;50.350;7.578;2022-07-11T02:27:45;100370.13;;;18.29;63.50
47883;BME280;37739;50.350;7.578;2022-07-11T02:30:10;100370.13;;;18.29;63.44
47883;BME280;37739;50.350;7.578;2022-07-11T02:32:37;100367.47;;;18.27;63.41
47883;BME280;37739;50.350;7.578;2022-07-11T02:35:05;100375.31;;;18.29;63.54
47883;BME280;37739;50.350;7.578;2022-07-11T02:37:33;100372.72;;;18.29;63.32
47883;BME280;37739;50.350;7.578;2022-07-11T02:40:01;100375.31;;;18.29;63.62
47883;BME280;37739;50.350;7.578;2022-07-11T02:42:26;100370.09;;;18.30;63.72
47883;BME280;37739;50.350;7.578;2022-07-11T02:44:54;100375.31;;;18.29;63.52
47883;BME280;37739;50.350;7.578;2022-07-11T02:47:22;100377.00;;;18.28;63.59
47883;BME280;37739;50.350;7.578;2022-07-11T02:49:49;100381.31;;;18.26;63.22
47883;BME280;37739;50.350;7.578;2022-07-11T02:52:17;100379.59;;;18.27;63.82
47883;BME280;37739;50.350;7.578;2022-07-11T02:54:42;100388.25;;;18.27;63.89
47883;BME280;37739;50.350;7.578;2022-07-11T02:57:10;100392.38;;;18.14;63.73
47883;BME280;37739;50.350;7.578;2022-07-11T02:59:35;100385.34;;;18.07;64.41
47883;BME280;37739;50.350;7.578;2022-07-11T03:02:01;100387.94;;;18.07;64.25
47883;BME280;37739;50.350;7.578;2022-07-11T03:04:30;100395.75;;;18.09;64.03
47883;BME280;37739;50.350;7.578;2022-07-11T03:06:55;100393.88;;;17.98;64.34
47883;BME280;37739;50.350;7.578;2022-07-11T03:09:22;100395.56;;;17.96;64.58
47883;BME280;37739;50.350;7.578;2022-07-11T03:11:48;100398.03;;;17.89;65.00
47883;BME280;37739;50.350;7.578;2022-07-11T03:14:17;100393.69;;;17.88;65.33
47883;BME280;37739;50.350;7.578;2022-07-11T03:16:43;100400.59;;;17.87;65.12
47883;BME280;37739;50.350;7.578;2022-07-11T03:19:08;100397.94;;;17.84;65.60
47883;BME280;37739;50.350;7.578;2022-07-11T03:21:36;100392.72;;;17.82;65.49
47883;BME280;37739;50.350;7.578;2022-07-11T03:24:01;100394.38;;;17.79;65.72
47883;BME280;37739;50.350;7.578;2022-07-11T03:26:28;100392.63;;;17.78;65.89
47883;BME280;37739;50.350;7.578;2022-07-11T03:28:55;100392.53;;;17.72;66.07
47883;BME280;37739;50.350;7.578;2022-07-11T03:31:24;100395.13;;;17.72;66.06
47883;BME280;37739;50.350;7.578;2022-07-11T03:33:51;100387.41;;;17.76;66.07
47883;BME280;37739;50.350;7.578;2022-07-11T03:36:19;100396.88;;;17.74;65.88
47883;BME280;37739;50.350;7.578;2022-07-11T03:38:49;100389.94;;;17.72;66.45
47883;BME280;37739;50.350;7.578;2022-07-11T03:41:17;100399.28;;;17.62;66.77
47883;BME280;37739;50.350;7.578;2022-07-11T03:43:45;100402.66;;;17.58;66.79
47883;BME280;37739;50.350;7.578;2022-07-11T03:46:12;100400.19;;;17.65;66.36
47883;BME280;37739;50.350;7.578;2022-07-11T03:48:37;100395.00;;;17.65;66.72
47883;BME280;37739;50.350;7.578;2022-07-11T03:51:03;100398.56;;;17.72;66.32
47883;BME280;37739;50.350;7.578;2022-07-11T03:53:28;100396.84;;;17.71;66.26
47883;BME280;37739;50.350;7.578;2022-07-11T03:55:56;100394.25;;;17.71;66.24
47883;BME280;37739;50.350;7.578;2022-07-11T03:58:21;100391.78;;;17.79;66.15
47883;BME280;37739;50.350;7.578;2022-07-11T04:00:51;100403.00;;;17.78;66.43
47883;BME280;37739;50.350;7.578;2022-07-11T04:03:16;100389.94;;;17.72;66.50
47883;BME280;37739;50.350;7.578;2022-07-11T04:05:44;100387.25;;;17.67;66.58
47883;BME280;37739;50.350;7.578;2022-07-11T04:08:12;100384.63;;;17.65;66.69
47883;BME280;37739;50.350;7.578;2022-07-11T04:10:37;100389.72;;;17.59;66.87
47883;BME280;37739;50.350;7.578;2022-07-11T04:13:04;100388.84;;;17.60;67.10
47883;BME280;37739;50.350;7.578;2022-07-11T04:15:32;100389.97;;;17.73;66.59
47883;BME280;37739;50.350;7.578;2022-07-11T04:17:57;100391.66;;;17.71;66.44
47883;BME280;37739;50.350;7.578;2022-07-11T04:20:25;100395.97;;;17.72;66.45
47883;BME280;37739;50.350;7.578;2022-07-11T04:22:50;100391.69;;;17.74;66.65
47883;BME280;37739;50.350;7.578;2022-07-11T04:25:15;100397.69;;;17.70;66.91
47883;BME280;37739;50.350;7.578;2022-07-11T04:27:43;100395.84;;;17.64;66.89
47883;BME280;37739;50.350;7.578;2022-07-11T04:30:09;100399.16;;;17.56;67.76
47883;BME280;37739;50.350;7.578;2022-07-11T04:32:34;100397.38;;;17.53;68.42
47883;BME280;37739;50.350;7.578;2022-07-11T04:35:01;100397.34;;;17.50;68.03
47883;BME280;37739;50.350;7.578;2022-07-11T04:37:28;100400.16;;;17.64;67.06
47883;BME280;37739;50.350;7.578;2022-07-11T04:39:58;100400.28;;;17.70;66.98
47883;BME280;37739;50.350;7.578;2022-07-11T04:42:28;100402.69;;;17.61;67.42
47883;BME280;37739;50.350;7.578;2022-07-11T04:44:54;100398.53;;;17.69;67.17
47883;BME280;37739;50.350;7.578;2022-07-11T04:47:19;100401.03;;;17.63;67.52
47883;BME280;37739;50.350;7.578;2022-07-11T04:49:44;100404.66;;;17.74;66.85
47883;BME280;37739;50.350;7.578;2022-07-11T04:52:12;100400.38;;;17.75;67.10
47883;BME280;37739;50.350;7.578;2022-07-11T04:54:40;100412.50;;;17.77;67.00
47883;BME280;37739;50.350;7.578;2022-07-11T04:57:05;100410.78;;;17.78;67.24
47883;BME280;37739;50.350;7.578;2022-07-11T04:59:31;100411.81;;;17.84;66.90
47883;BME280;37739;50.350;7.578;2022-07-11T05:01:57;100415.91;;;17.73;67.58
47883;BME280;37739;50.350;7.578;2022-07-11T05:04:22;100415.84;;;17.70;67.50
47883;BME280;37739;50.350;7.578;2022-07-11T05:06:48;100418.41;;;17.67;67.75
47883;BME280;37739;50.350;7.578;2022-07-11T05:09:13;100417.50;;;17.66;68.67
47883;BME280;37739;50.350;7.578;2022-07-11T05:11:39;100416.56;;;17.61;68.03
47883;BME280;37739;50.350;7.578;2022-07-11T05:14:06;100425.28;;;17.66;68.20
47883;BME280;37739;50.350;7.578;2022-07-11T05:16:31;100424.47;;;17.67;68.18
47883;BME280;37739;50.350;7.578;2022-07-11T05:18:59;100423.63;;;17.70;67.78
47883;BME280;37739;50.350;7.578;2022-07-11T05:21:27;100428.91;;;17.76;67.79
47883;BME280;37739;50.350;7.578;2022-07-11T05:23:52;100429.97;;;17.84;67.49
47883;BME280;37739;50.350;7.578;2022-07-11T05:26:18;100427.28;;;17.81;68.00
47883;BME280;37739;50.350;7.578;2022-07-11T05:28:43;100428.09;;;17.77;67.80
47883;BME280;37739;50.350;7.578;2022-07-11T05:31:09;100427.13;;;17.72;68.87
47883;BME280;37739;50.350;7.578;2022-07-11T05:33:35;100433.22;;;17.74;68.18
47883;BME280;37739;50.350;7.578;2022-07-11T05:36:01;100428.31;;;17.88;67.86
47883;BME280;37739;50.350;7.578;2022-07-11T05:38:27;100433.66;;;17.97;67.81
47883;BME280;37739;50.350;7.578;2022-07-11T05:40:52;100437.09;;;17.96;67.13
47883;BME280;37739;50.350;7.578;2022-07-11T05:43:20;100436.84;;;17.82;68.59
47883;BME280;37739;50.350;7.578;2022-07-11T05:45:48;100435.84;;;17.76;68.38
47883;BME280;37739;50.350;7.578;2022-07-11T05:48:14;100439.19;;;17.70;68.89
47883;BME280;37739;50.350;7.578;2022-07-11T05:50:41;100438.53;;;17.80;68.44
47883;BME280;37739;50.350;7.578;2022-07-11T05:53:07;100435.94;;;17.80;68.52
47883;BME280;37739;50.350;7.578;2022-07-11T05:55:36;100438.56;;;17.83;68.36
47883;BME280;37739;50.350;7.578;2022-07-11T05:58:01;100435.06;;;17.81;68.91
47883;BME280;37739;50.350;7.578;2022-07-11T06:00:29;100446.28;;;17.79;68.46
47883;BME280;37739;50.350;7.578;2022-07-11T06:02:59;100449.09;;;17.88;68.35
47883;BME280;37739;50.350;7.578;2022-07-11T06:05:24;100444.06;;;17.99;67.64
47883;BME280;37739;50.350;7.578;2022-07-11T06:07:52;100445.84;;;18.01;67.52
47883;BME280;37739;50.350;7.578;2022-07-11T06:10:36;100446.56;;;17.93;68.09
47883;BME280;37739;50.350;7.578;2022-07-11T06:13:05;100446.50;;;17.90;68.82
47883;BME280;37739;50.350;7.578;2022-07-11T06:15:30;100443.94;;;17.91;68.40
47883;BME280;37739;50.350;7.578;2022-07-11T06:17:56;100446.66;;;17.99;68.09
47883;BME280;37739;50.350;7.578;2022-07-11T06:20:22;100444.78;;;17.90;68.58
47883;BME280;37739;50.350;7.578;2022-07-11T06:22:47;100446.56;;;17.93;68.47
47883;BME280;37739;50.350;7.578;2022-07-11T06:25:12;100445.56;;;17.84;69.06
47883;BME280;37739;50.350;7.578;2022-07-11T06:27:38;100442.16;;;17.89;68.74
47883;BME280;37739;50.350;7.578;2022-07-11T06:30:06;100444.78;;;17.90;68.43
47883;BME280;37739;50.350;7.578;2022-07-11T06:32:33;100446.63;;;17.96;68.30
47883;BME280;37739;50.350;7.578;2022-07-11T06:34:59;100454.22;;;17.85;69.39
47883;BME280;37739;50.350;7.578;2022-07-11T06:37:26;100447.22;;;17.82;68.71
47883;BME280;37739;50.350;7.578;2022-07-11T06:39:54;100451.53;;;17.83;68.83
47883;BME280;37739;50.350;7.578;2022-07-11T06:42:19;100447.56;;;18.01;68.15
47883;BME280;37739;50.350;7.578;2022-07-11T06:44:47;100447.78;;;18.15;68.00
47883;BME280;37739;50.350;7.578;2022-07-11T06:47:17;100451.38;;;18.21;67.49
47883;BME280;37739;50.350;7.578;2022-07-11T06:49:42;100448.66;;;18.14;68.04
47883;BME280;37739;50.350;7.578;2022-07-11T06:52:08;100459.66;;;18.00;68.43
47883;BME280;37739;50.350;7.578;2022-07-11T06:54:35;100453.50;;;17.94;69.10
47883;BME280;37739;50.350;7.578;2022-07-11T06:57:03;100446.75;;;18.05;68.33
47883;BME280;37739;50.350;7.578;2022-07-11T06:59:28;100436.56;;;18.16;67.56
47883;BME280;37739;50.350;7.578;2022-07-11T07:01:54;100445.97;;;18.11;68.58
47883;BME280;37739;50.350;7.578;2022-07-11T07:04:19;100449.31;;;18.02;68.86
47883;BME280;37739;50.350;7.578;2022-07-11T07:06:45;100454.56;;;18.07;68.33
47883;BME280;37739;50.350;7.578;2022-07-11T07:09:11;100445.19;;;18.13;68.14
47883;BME280;37739;50.350;7.578;2022-07-11T07:11:36;100458.84;;;18.03;68.89
47883;BME280;37739;50.350;7.578;2022-07-11T07:14:04;100455.25;;;17.95;68.89
47883;BME280;37739;50.350;7.578;2022-07-11T07:16:29;100449.16;;;17.93;69.06
47883;BME280;37739;50.350;7.578;2022-07-11T07:18:55;100457.13;;;18.03;68.72
47883;BME280;37739;50.350;7.578;2022-07-11T07:21:20;100463.19;;;18.04;68.85
47883;BME280;37739;50.350;7.578;2022-07-11T07:23:48;100461.31;;;17.95;69.05
47883;BME280;37739;50.350;7.578;2022-07-11T07:26:13;100464.94;;;18.05;68.89
47883;BME280;37739;50.350;7.578;2022-07-11T07:28:41;100465.06;;;18.11;68.34
47883;BME280;37739;50.350;7.578;2022-07-11T07:31:09;100459.97;;;18.17;68.32
47883;BME280;37739;50.350;7.578;2022-07-11T07:33:39;100461.63;;;18.14;68.27
47883;BME280;37739;50.350;7.578;2022-07-11T07:36:04;100465.88;;;18.10;68.28
47883;BME280;37739;50.350;7.578;2022-07-11T07:38:32;100477.19;;;18.12;68.43
47883;BME280;37739;50.350;7.578;2022-07-11T07:40:57;100473.78;;;18.16;68.05
47883;BME280;37739;50.350;7.578;2022-07-11T07:43:25;100472.03;;;18.15;68.22
47883;BME280;37739;50.350;7.578;2022-07-11T07:45:51;100484.25;;;18.22;68.03
47883;BME280;37739;50.350;7.578;2022-07-11T07:48:17;100484.25;;;18.22;67.76
47883;BME280;37739;50.350;7.578;2022-07-11T07:50:42;100480.91;;;18.28;67.35
47883;BME280;37739;50.350;7.578;2022-07-11T07:53:10;100479.00;;;18.18;67.78
47883;BME280;37739;50.350;7.578;2022-07-11T07:55:35;100478.03;;;18.11;67.64
47883;BME280;37739;50.350;7.578;2022-07-11T07:58:00;100483.22;;;18.13;67.47
47883;BME280;37739;50.350;7.578;2022-07-11T08:00:28;100479.03;;;18.19;67.19
47883;BME280;37739;50.350;7.578;2022-07-11T08:03:12;100481.53;;;18.15;66.77
47883;BME280;37739;50.350;7.578;2022-07-11T08:05:39;100477.91;;;18.03;67.65
47883;BME280;37739;50.350;7.578;2022-07-11T08:08:07;100483.94;;;18.02;67.35
47883;BME280;37739;50.350;7.578;2022-07-11T08:10:33;100478.03;;;18.11;67.21
47883;BME280;37739;50.350;7.578;2022-07-11T08:12:58;100480.94;;;18.30;66.65
47883;BME280;37739;50.350;7.578;2022-07-11T08:15:23;100478.66;;;18.50;66.24
47883;BME280;37739;50.350;7.578;2022-07-11T08:17:49;100488.38;;;18.61;65.92
47883;BME280;37739;50.350;7.578;2022-07-11T08:20:14;100487.66;;;18.72;65.52
47883;BME280;37739;50.350;7.578;2022-07-11T08:22:42;100488.47;;;18.69;65.72
47883;BME280;37739;50.350;7.578;2022-07-11T08:25:07;100490.28;;;18.76;65.27
47883;BME280;37739;50.350;7.578;2022-07-11T08:27:35;100493.78;;;18.77;65.32
47883;BME280;37739;50.350;7.578;2022-07-11T08:30:05;100490.34;;;18.79;65.21
47883;BME280;37739;50.350;7.578;2022-07-11T08:32:32;100495.56;;;18.79;64.59
47883;BME280;37739;50.350;7.578;2022-07-11T08:35:02;100500.84;;;18.84;64.80
47883;BME280;37739;50.350;7.578;2022-07-11T08:37:30;100496.50;;;18.83;64.85
47883;BME280;37739;50.350;7.578;2022-07-11T08:39:58;100493.91;;;18.83;64.66
47883;BME280;37739;50.350;7.578;2022-07-11T08:42:28;100498.28;;;18.86;64.68
47883;BME280;37739;50.350;7.578;2022-07-11T08:44:58;100495.66;;;18.82;64.89
47883;BME280;37739;50.350;7.578;2022-07-11T08:47:24;100496.31;;;18.72;65.13
47883;BME280;37739;50.350;7.578;2022-07-11T08:49:51;100497.09;;;18.65;65.65
47883;BME280;37739;50.350;7.578;2022-07-11T08:52:16;100496.09;;;18.58;65.41
47883;BME280;37739;50.350;7.578;2022-07-11T08:54:44;100493.50;;;18.58;65.66
47883;BME280;37739;50.350;7.578;2022-07-11T08:57:13;100485.88;;;18.69;65.47
47883;BME280;37739;50.350;7.578;2022-07-11T08:59:39;100493.81;;;18.78;65.44
47883;BME280;37739;50.350;7.578;2022-07-11T09:02:09;100489.69;;;18.91;64.65
47883;BME280;37739;50.350;7.578;2022-07-11T09:04:39;100490.78;;;19.09;64.30
47883;BME280;37739;50.350;7.578;2022-07-11T09:07:07;100490.03;;;19.17;64.40
47883;BME280;37739;50.350;7.578;2022-07-11T09:09:33;100485.78;;;19.24;63.93
47883;BME280;37739;50.350;7.578;2022-07-11T09:11:58;100491.06;;;19.32;64.06
47883;BME280;37739;50.350;7.578;2022-07-11T09:14:29;100477.22;;;19.33;63.80
47883;BME280;37739;50.350;7.578;2022-07-11T09:17:04;100486.75;;;19.34;64.08
47883;BME280;37739;50.350;7.578;2022-07-11T09:19:31;100486.78;;;19.35;64.16
47883;BME280;37739;50.350;7.578;2022-07-11T09:25:06;100478.84;;;19.23;64.35
47883;BME280;37739;50.350;7.578;2022-07-11T09:32:51;100479.06;;;19.41;63.72
47883;BME280;37739;50.350;7.578;2022-07-11T09:35:17;100473.75;;;19.31;63.83
47883;BME280;37739;50.350;7.578;2022-07-11T09:37:45;100469.25;;;19.19;64.76
47883;BME280;37739;50.350;7.578;2022-07-11T09:40:11;100466.69;;;19.22;64.10
47883;BME280;37739;50.350;7.578;2022-07-11T09:42:59;100467.59;;;19.26;64.29
47883;BME280;37739;50.350;7.578;2022-07-11T09:45:26;100465.97;;;19.35;64.09
47883;BME280;37739;50.350;7.578;2022-07-11T09:47:55;100472.91;;;19.33;64.14
47883;BME280;37739;50.350;7.578;2022-07-11T09:50:25;100474.72;;;19.40;64.10
47883;BME280;37739;50.350;7.578;2022-07-11T09:55:25;100477.25;;;19.36;64.04
47883;BME280;37739;50.350;7.578;2022-07-11T09:57:50;100485.00;;;19.30;64.48
47883;BME280;37739;50.350;7.578;2022-07-11T10:00:16;100488.44;;;19.30;64.19
47883;BME280;37739;50.350;7.578;2022-07-11T10:02:41;100491.06;;;19.32;64.13
47883;BME280;37739;50.350;7.578;2022-07-11T10:05:10;100478.97;;;19.34;63.58
47883;BME280;37739;50.350;7.578;2022-07-11T10:07:35;100488.44;;;19.27;64.17
47883;BME280;37739;50.350;7.578;2022-07-11T10:10:06;100484.06;;;19.23;63.97
47883;BME280;37739;50.350;7.578;2022-07-11T10:12:32;100486.63;;;19.21;64.07
47883;BME280;37739;50.350;7.578;2022-07-11T10:15:22;100492.75;;;19.25;64.03
47883;BME280;37739;50.350;7.578;2022-07-11T10:29:09;100495.50;;;19.39;64.11
47883;BME280;37739;50.350;7.578;2022-07-11T10:31:37;100492.78;;;19.30;64.66
47883;BME280;37739;50.350;7.578;2022-07-11T10:36:31;100486.03;;;19.46;64.11
47883;BME280;37739;50.350;7.578;2022-07-11T10:39:26;100493.88;;;19.49;64.00
47883;BME280;37739;50.350;7.578;2022-07-11T10:42:02;100492.38;;;19.68;63.64
47883;BME280;37739;50.350;7.578;2022-07-11T10:44:54;100480.25;;;19.70;64.10
47883;BME280;37739;50.350;7.578;2022-07-11T10:47:38;100475.78;;;19.61;64.39
47883;BME280;37739;50.350;7.578;2022-07-11T10:50:22;100481.19;;;19.73;63.84
47883;BME280;37739;50.350;7.578;2022-07-11T10:52:57;100481.44;;;19.98;63.33
47883;BME280;37739;50.350;7.578;2022-07-11T11:00:22;100488.13;;;20.74;61.61
47883;BME280;37739;50.350;7.578;2022-07-11T11:03:03;100488.19;;;20.78;60.78
47883;BME280;37739;50.350;7.578;2022-07-11T11:10:58;100491.84;;;21.11;60.43
47883;BME280;37739;50.350;7.578;2022-07-11T11:13:27;100491.81;;;21.13;60.79
47883;BME280;37739;50.350;7.578;2022-07-11T11:15:57;100493.50;;;20.98;60.58
47883;BME280;37739;50.350;7.578;2022-07-11T11:23:29;100496.13;;;21.05;61.06
47883;BME280;37739;50.350;7.578;2022-07-11T11:26:06;100488.31;;;21.00;60.82
47883;BME280;37739;50.350;7.578;2022-07-11T11:28:32;100493.41;;;20.82;61.26
47883;BME280;37739;50.350;7.578;2022-07-11T11:31:00;100498.50;;;20.66;61.33
47883;BME280;37739;50.350;7.578;2022-07-11T11:33:27;100494.16;;;20.67;61.67
47883;BME280;37739;50.350;7.578;2022-07-11T11:36:07;100488.06;;;20.65;61.84
47883;BME280;37739;50.350;7.578;2022-07-11T11:38:36;100489.00;;;20.74;61.56
47883;BME280;37739;50.350;7.578;2022-07-11T11:41:07;100489.91;;;20.78;60.97
47883;BME280;37739;50.350;7.578;2022-07-11T11:43:33;100490.59;;;20.58;61.58
47883;BME280;37739;50.350;7.578;2022-07-11T11:45:59;100494.06;;;20.59;62.02
47883;BME280;37739;50.350;7.578;2022-07-11T11:48:37;100495.88;;;20.62;61.30
47883;BME280;37739;50.350;7.578;2022-07-11T11:51:05;100494.91;;;20.53;61.68
47883;BME280;37739;50.350;7.578;2022-07-11T11:53:38;100495.91;;;20.63;61.66
47883;BME280;37739;50.350;7.578;2022-07-11T11:56:14;100502.75;;;20.56;61.70
47883;BME280;37739;50.350;7.578;2022-07-11T11:58:41;100496.75;;;20.64;61.85
47883;BME280;37739;50.350;7.578;2022-07-11T12:01:19;100495.06;;;20.70;61.82
47883;BME280;37739;50.350;7.578;2022-07-11T12:03:54;100489.06;;;20.85;61.29
47883;BME280;37739;50.350;7.578;2022-07-11T12:06:39;100498.59;;;20.77;61.46
47883;BME280;37739;50.350;7.578;2022-07-11T12:11:37;100495.81;;;20.58;62.02
47883;BME280;37739;50.350;7.578;2022-07-11T12:14:08;100487.19;;;20.59;61.92
47883;BME280;37739;50.350;7.578;2022-07-11T12:16:35;100494.16;;;20.64;62.41
47883;BME280;37739;50.350;7.578;2022-07-11T12:21:36;100497.66;;;20.69;61.39
47883;BME280;37739;50.350;7.578;2022-07-11T12:24:05;100501.22;;;20.82;61.42
47883;BME280;37739;50.350;7.578;2022-07-11T12:26:36;100496.88;;;20.84;61.19
47883;BME280;37739;50.350;7.578;2022-07-11T12:34:09;100494.31;;;20.90;60.79
47883;BME280;37739;50.350;7.578;2022-07-11T12:36:37;100508.28;;;20.99;60.57
47883;BME280;37739;50.350;7.578;2022-07-11T12:39:04;100502.22;;;21.02;60.49
47883;BME280;37739;50.350;7.578;2022-07-11T12:41:32;100486.50;;;20.88;60.33
47883;BME280;37739;50.350;7.578;2022-07-11T12:43:58;100493.41;;;20.78;60.43
47883;BME280;37739;50.350;7.578;2022-07-11T12:46:42;100497.66;;;20.69;60.65
47883;BME280;37739;50.350;7.578;2022-07-11T12:49:10;100495.00;;;20.61;60.85
47883;BME280;37739;50.350;7.578;2022-07-11T12:51:43;100499.38;;;20.65;61.15
47883;BME280;37739;50.350;7.578;2022-07-11T12:54:16;100496.69;;;20.59;61.52
47883;BME280;37739;50.350;7.578;2022-07-11T12:56:52;100498.38;;;20.48;61.95
47883;BME280;37739;50.350;7.578;2022-07-11T12:59:20;100486.97;;;20.39;62.23
47883;BME280;37739;50.350;7.578;2022-07-11T13:04:42;100500.00;;;20.36;62.64
47883;BME280;37739;50.350;7.578;2022-07-11T13:07:36;100496.59;;;20.42;62.36
47883;BME280;37739;50.350;7.578;2022-07-11T13:10:25;100494.84;;;20.43;61.98
47883;BME280;37739;50.350;7.578;2022-07-11T13:12:55;100490.44;;;20.35;61.81
47883;BME280;37739;50.350;7.578;2022-07-11T13:15:22;100495.59;;;20.29;62.22
47883;BME280;37739;50.350;7.578;2022-07-11T13:20:17;100497.28;;;20.21;62.50
47883;BME280;37739;50.350;7.578;2022-07-11T13:22:45;100496.53;;;20.39;62.24
47883;BME280;37739;50.350;7.578;2022-07-11T13:25:13;100494.91;;;20.55;61.75
47883;BME280;37739;50.350;7.578;2022-07-11T13:27:43;100488.94;;;20.62;61.22
47883;BME280;37739;50.350;7.578;2022-07-11T13:30:10;100494.06;;;20.56;61.62
47883;BME280;37739;50.350;7.578;2022-07-11T13:32:38;100490.59;;;20.58;61.41
47883;BME280;37739;50.350;7.578;2022-07-11T13:35:04;100488.91;;;20.61;61.90
47883;BME280;37739;50.350;7.578;2022-07-11T13:37:32;100490.59;;;20.58;61.97
47883;BME280;37739;50.350;7.578;2022-07-11T13:39:57;100489.72;;;20.56;62.05
47883;BME280;37739;50.350;7.578;2022-07-11T13:42:23;100490.59;;;20.54;62.07
47883;BME280;37739;50.350;7.578;2022-07-11T13:44:48;100498.41;;;20.58;61.84
47883;BME280;37739;50.350;7.578;2022-07-11T13:47:16;100488.03;;;20.60;61.79
47883;BME280;37739;50.350;7.578;2022-07-11T13:49:41;100488.09;;;20.66;61.96
47883;BME280;37739;50.350;7.578;2022-07-11T13:52:09;100488.97;;;20.68;61.23
47883;BME280;37739;50.350;7.578;2022-07-11T13:54:36;100484.59;;;20.64;61.62
47883;BME280;37739;50.350;7.578;2022-07-11T13:57:02;100486.38;;;20.74;61.23